createdAt,value
2023-04-14T00:01:26.074Z,96883.38
2023-04-14T00:03:27.888Z,96884.72
2023-04-14T00:05:29.850Z,96887.03
2023-04-14T00:07:31.312Z,96877.28
2023-04-14T00:09:32.619Z,96875.09
2023-04-14T00:11:33.948Z,96884.41
2023-04-14T00:13:35.306Z,96883.50
2023-04-14T00:15:36.651Z,96870.06
2023-04-14T00:17:38.040Z,96868.75
2023-04-14T00:19:39.468Z,96867.59
2023-04-14T00:21:41.300Z,96878.09
2023-04-14T00:23:42.597Z,96870.72
2023-04-14T00:25:43.899Z,96877.75
2023-04-14T00:27:45.265Z,96879.72
2023-04-14T00:29:46.648Z,96879.84
2023-04-14T00:31:48.243Z,96875.69
2023-04-14T00:33:49.554Z,96880.88
2023-04-14T00:35:50.937Z,96880.09
2023-04-14T00:37:52.241Z,96883.53
2023-04-14T00:39:53.559Z,96884.38
2023-04-14T00:41:54.859Z,96884.38
2023-04-14T00:43:56.202Z,96876.72
2023-04-14T00:45:57.518Z,96873.34
2023-04-14T00:47:58.900Z,96878.44
2023-04-14T00:50:00.241Z,96878.44
2023-04-14T00:52:01.578Z,96879.97
2023-04-14T00:54:02.909Z,96879.13
2023-04-14T00:56:04.242Z,96877.41
2023-04-14T00:58:05.534Z,96881.63
2023-04-14T01:00:06.865Z,96877.28
2023-04-14T01:02:08.269Z,96868.84
2023-04-14T01:04:09.679Z,96857.72
2023-04-14T01:06:11.070Z,96851.81
2023-04-14T01:08:12.402Z,96856.81
2023-04-14T01:10:13.732Z,96865.22
2023-04-14T01:12:15.050Z,96857.59
2023-04-14T01:14:16.339Z,96858.53
2023-04-14T01:16:17.789Z,96860.25
2023-04-14T01:18:19.785Z,96859.47
2023-04-14T01:20:22.081Z,96859.53
2023-04-14T01:22:23.390Z,96864.59
2023-04-14T01:24:24.699Z,96864.88
2023-04-14T01:26:26.002Z,96861.56
2023-04-14T01:28:27.491Z,96874.41
2023-04-14T01:30:28.817Z,96878.69
2023-04-14T01:32:30.172Z,96871.97
2023-04-14T01:34:31.520Z,96741.88
2023-04-14T01:36:32.850Z,96865.16
2023-04-14T01:38:34.526Z,96873.78
2023-04-14T01:40:36.005Z,96878.03
2023-04-14T01:42:37.337Z,96884.09
2023-04-14T01:44:38.640Z,96875.66
2023-04-14T01:46:39.980Z,96870.25
2023-04-14T01:48:41.486Z,96865.19
2023-04-14T01:50:42.780Z,96870.38
2023-04-14T01:52:44.119Z,96868.72
2023-04-14T01:54:45.490Z,96857.66
2023-04-14T01:56:46.974Z,96856.78
2023-04-14T01:58:48.369Z,96848.28
2023-04-14T02:00:49.711Z,96852.50
2023-04-14T02:02:52.364Z,96843.94
2023-04-14T02:04:53.919Z,96841.22
2023-04-14T02:06:55.370Z,96837.69
2023-04-14T02:08:56.664Z,96841.00
2023-04-14T02:10:58.016Z,96840.13
2023-04-14T02:13:00.494Z,96835.03
2023-04-14T02:15:01.864Z,96832.47
2023-04-14T02:17:03.310Z,96828.19
2023-04-14T02:19:04.644Z,96824.81
2023-04-14T02:21:06.001Z,96824.72
2023-04-14T02:23:07.321Z,96822.19
2023-04-14T02:25:08.632Z,96821.41
2023-04-14T02:27:10.015Z,96827.47
2023-04-14T02:29:11.452Z,96823.38
2023-04-14T02:31:12.865Z,96820.94
2023-04-14T02:33:14.272Z,96823.59
2023-04-14T02:35:17.058Z,96823.69
2023-04-14T02:37:18.370Z,96823.75
2023-04-14T02:39:20.959Z,96816.13
2023-04-14T02:41:22.324Z,96822.97
2023-04-14T02:43:23.662Z,96828.03
2023-04-14T02:45:24.952Z,96825.38
2023-04-14T02:47:26.341Z,96828.81
2023-04-14T02:49:27.673Z,96820.94
2023-04-14T02:51:28.979Z,96819.19
2023-04-14T02:53:30.283Z,96829.19
2023-04-14T02:55:31.624Z,96818.91
2023-04-14T02:57:33.414Z,96815.44
2023-04-14T02:59:34.777Z,96817.06
2023-04-14T03:01:36.331Z,96808.31
2023-04-14T03:03:37.924Z,96810.81
2023-04-14T03:05:39.446Z,96807.22
2023-04-14T03:07:40.805Z,96814.81
2023-04-14T03:09:42.399Z,96816.63
2023-04-14T03:11:43.698Z,96808.19
2023-04-14T03:13:45.037Z,96818.53
2023-04-14T03:15:46.577Z,96810.88
2023-04-14T03:17:53.917Z,96817.78
2023-04-14T03:19:56.107Z,96827.22
2023-04-14T03:21:58.846Z,96815.34
2023-04-14T03:24:00.255Z,96805.97
2023-04-14T03:26:02.164Z,96811.75
2023-04-14T03:28:03.490Z,96813.31
2023-04-14T03:30:04.835Z,96813.31
2023-04-14T03:32:06.989Z,96808.28
2023-04-14T03:34:08.391Z,96810.81
2023-04-14T03:36:09.708Z,96810.00
2023-04-14T03:38:11.363Z,96810.88
2023-04-14T03:40:12.827Z,96803.28
2023-04-14T03:42:14.151Z,96816.09
2023-04-14T03:44:16.423Z,96817.03
2023-04-14T03:46:18.112Z,96825.47
2023-04-14T03:48:19.994Z,96821.28
2023-04-14T03:50:21.905Z,96816.22
2023-04-14T03:52:23.212Z,96809.19
2023-04-14T03:54:25.393Z,96807.56
2023-04-14T03:56:26.720Z,96803.28
2023-04-14T03:58:28.012Z,96803.34
2023-04-14T04:00:29.308Z,96806.66
2023-04-14T04:02:30.852Z,96802.44
2023-04-14T04:04:32.618Z,96800.78
2023-04-14T04:06:34.044Z,96803.47
2023-04-14T04:08:35.497Z,96807.06
2023-04-14T04:10:36.961Z,96795.28
2023-04-14T04:12:38.287Z,96789.50
2023-04-14T04:14:40.436Z,96790.50
2023-04-14T04:16:41.807Z,96793.03
2023-04-14T04:18:46.940Z,96781.13
2023-04-14T04:20:48.314Z,96776.88
2023-04-14T04:22:49.775Z,96776.88
2023-04-14T04:24:51.193Z,96780.31
2023-04-14T04:26:53.306Z,96780.19
2023-04-14T04:28:54.714Z,96779.97
2023-04-14T04:30:56.035Z,96777.25
2023-04-14T04:32:57.422Z,96783.88
2023-04-14T04:34:58.921Z,96789.56
2023-04-14T04:37:00.793Z,96788.47
2023-04-14T04:39:02.370Z,96793.38
2023-04-14T04:41:03.877Z,96784.66
2023-04-14T04:43:05.268Z,96792.16
2023-04-14T04:45:06.637Z,96792.91
2023-04-14T04:47:07.975Z,96789.38
2023-04-14T04:49:09.320Z,96788.50
2023-04-14T04:51:10.708Z,96793.47
2023-04-14T04:53:12.388Z,96793.47
2023-04-14T04:55:13.733Z,96789.34
2023-04-14T04:57:15.077Z,96791.72
2023-04-14T04:59:16.458Z,96787.41
2023-04-14T05:01:19.316Z,96793.31
2023-04-14T05:03:21.063Z,96785.88
2023-04-14T05:05:22.567Z,96783.56
2023-04-14T05:07:23.985Z,96786.41
2023-04-14T05:09:25.488Z,96782.41
2023-04-14T05:11:27.147Z,96789.28
2023-04-14T05:13:28.466Z,96790.22
2023-04-14T05:15:29.803Z,96790.19
2023-04-14T05:17:31.244Z,96788.38
2023-04-14T05:19:32.601Z,96796.06
2023-04-14T05:21:34.113Z,96799.50
2023-04-14T05:23:35.580Z,96795.28
2023-04-14T05:25:36.893Z,96800.41
2023-04-14T05:27:38.248Z,96797.09
2023-04-14T05:29:39.593Z,96792.78
2023-04-14T05:31:41.294Z,96791.97
2023-04-14T05:33:42.707Z,96792.88
2023-04-14T05:35:47.390Z,96798.72
2023-04-14T05:37:48.692Z,96799.50
2023-04-14T05:39:50.001Z,96796.13
2023-04-14T05:41:51.442Z,96800.41
2023-04-14T05:43:52.792Z,96802.13
2023-04-14T05:45:54.180Z,96802.03
2023-04-14T05:47:55.663Z,96791.81
2023-04-14T05:49:58.378Z,96797.78
2023-04-14T05:51:59.720Z,96789.28
2023-04-14T05:54:01.346Z,96792.66
2023-04-14T05:56:02.980Z,96785.84
2023-04-14T05:58:04.647Z,96780.72
2023-04-14T06:00:06.254Z,96788.34
2023-04-14T06:02:07.732Z,96781.47
2023-04-14T06:04:09.731Z,96783.91
2023-04-14T06:06:11.332Z,96788.97
2023-04-14T06:08:12.731Z,96775.28
2023-04-14T06:10:14.246Z,96787.91
2023-04-14T06:12:15.799Z,96777.69
2023-04-14T06:14:17.179Z,96769.91
2023-04-14T06:16:21.441Z,96774.06
2023-04-14T06:18:25.815Z,96772.38
2023-04-14T06:20:27.137Z,96768.72
2023-04-14T06:22:32.569Z,96775.44
2023-04-14T06:24:34.581Z,96770.41
2023-04-14T06:26:37.050Z,96768.59
2023-04-14T06:28:38.397Z,96762.75
2023-04-14T06:30:39.691Z,96761.16
2023-04-14T06:32:41.358Z,96769.56
2023-04-14T06:34:42.696Z,96770.41
2023-04-14T06:36:47.005Z,96767.97
2023-04-14T06:38:48.351Z,96769.78
2023-04-14T06:40:51.904Z,96764.44
2023-04-14T06:42:54.495Z,96754.69
2023-04-14T06:44:56.064Z,96754.50
2023-04-14T06:46:57.396Z,96759.59
2023-04-14T06:48:59.081Z,96747.63
2023-04-14T06:51:00.766Z,96756.84
2023-04-14T06:53:02.149Z,96759.03
2023-04-14T06:55:03.528Z,96751.75
2023-04-14T06:57:04.861Z,96744.34
2023-04-14T06:59:06.192Z,96755.59
2023-04-14T07:01:07.508Z,96744.72
2023-04-14T07:03:09.321Z,96749.97
2023-04-14T07:05:10.789Z,96746.66
2023-04-14T07:07:14.366Z,96749.31
2023-04-14T07:09:16.042Z,96748.50
2023-04-14T07:11:17.409Z,96748.56
2023-04-14T07:13:18.731Z,96743.31
2023-04-14T07:15:20.129Z,96750.50
2023-04-14T07:17:21.517Z,96745.81
2023-04-14T07:19:22.851Z,96743.47
2023-04-14T07:21:24.154Z,96734.13
2023-04-14T07:23:25.740Z,96740.00
2023-04-14T07:25:27.368Z,96732.34
2023-04-14T07:27:28.889Z,96736.44
2023-04-14T07:29:30.322Z,96731.97
2023-04-14T07:31:34.155Z,96727.53
2023-04-14T07:33:36.069Z,96732.50
2023-04-14T07:35:40.251Z,96736.63
2023-04-14T07:37:44.940Z,96734.84
2023-04-14T07:39:46.296Z,96727.94
2023-04-14T07:41:47.610Z,96723.63
2023-04-14T07:43:48.995Z,96732.78
2023-04-14T07:45:50.390Z,96730.94
2023-04-14T07:47:52.240Z,96732.56
2023-04-14T07:49:54.644Z,96728.31
2023-04-14T07:51:56.954Z,96721.44
2023-04-14T07:53:58.724Z,96723.16
2023-04-14T07:56:00.226Z,96721.56
2023-04-14T07:58:01.604Z,96721.75
2023-04-14T08:00:03.974Z,96730.44
2023-04-14T08:02:05.551Z,96710.97
2023-04-14T08:04:07.061Z,96721.25
2023-04-14T08:06:09.027Z,96722.28
2023-04-14T08:08:10.382Z,96721.56
2023-04-14T08:10:11.692Z,96725.91
2023-04-14T08:12:13.071Z,96722.63
2023-04-14T08:14:14.411Z,96591.25
2023-04-14T08:16:15.785Z,96725.50
2023-04-14T08:18:17.440Z,96721.50
2023-04-14T08:20:18.738Z,96722.56
2023-04-14T08:22:20.096Z,96726.97
2023-04-14T08:24:21.487Z,96722.81
2023-04-14T08:26:22.833Z,96727.25
2023-04-14T08:28:24.660Z,96718.75
2023-04-14T08:30:26.214Z,96717.16
2023-04-14T08:32:28.486Z,96725.69
2023-04-14T08:34:30.389Z,96728.25
2023-04-14T08:36:31.751Z,96723.22
2023-04-14T08:38:33.115Z,96718.13
2023-04-14T08:40:34.437Z,96577.28
2023-04-14T08:42:35.747Z,96727.50
2023-04-14T08:44:37.398Z,96720.69
2023-04-14T08:46:38.698Z,96716.41
2023-04-14T08:48:40.035Z,96717.16
2023-04-14T08:50:42.352Z,96718.97
2023-04-14T08:52:43.649Z,96723.09
2023-04-14T08:54:45.299Z,96714.41
2023-04-14T08:56:46.623Z,96719.31
2023-04-14T08:58:47.955Z,96719.28
2023-04-14T09:00:49.258Z,96719.97
2023-04-14T09:02:50.873Z,96715.56
2023-04-14T09:04:52.613Z,96718.91
2023-04-14T09:06:54.061Z,96718.75
2023-04-14T09:08:55.470Z,96721.16
2023-04-14T09:10:56.779Z,96716.91
2023-04-14T09:12:58.200Z,96716.84
2023-04-14T09:14:59.525Z,96717.66
2023-04-14T09:17:00.899Z,96716.78
2023-04-14T09:19:06.473Z,96716.84
2023-04-14T09:21:30.445Z,96714.28
2023-04-14T09:23:29.981Z,96709.19
2023-04-14T09:25:31.744Z,96719.41
2023-04-14T09:27:33.157Z,96707.44
2023-04-14T09:29:34.538Z,96597.41
2023-04-14T09:31:35.971Z,96711.75
2023-04-14T09:33:37.419Z,96710.97
2023-04-14T09:35:38.803Z,96717.78
2023-04-14T09:37:40.107Z,96711.09
2023-04-14T09:39:44.184Z,96709.50
2023-04-14T09:41:45.546Z,96715.50
2023-04-14T09:43:47.181Z,96706.19
2023-04-14T09:45:48.575Z,96712.25
2023-04-14T09:47:49.962Z,96708.84
2023-04-14T09:49:51.739Z,96697.97
2023-04-14T09:51:53.194Z,96702.25
2023-04-14T09:53:54.667Z,96703.13
2023-04-14T09:55:56.178Z,96704.91
2023-04-14T09:57:57.963Z,96699.84
2023-04-14T09:59:59.269Z,96700.78
2023-04-14T10:02:03.585Z,96703.38
2023-04-14T10:04:05.012Z,96700.06
2023-04-14T10:06:06.324Z,96707.72
2023-04-14T10:08:07.644Z,96704.44
2023-04-14T10:10:08.962Z,96575.16
2023-04-14T10:12:10.523Z,96702.94
2023-04-14T10:14:11.957Z,96704.59
2023-04-14T10:16:13.541Z,96694.41
2023-04-14T10:18:14.950Z,96702.84
2023-04-14T10:20:16.495Z,96698.72
2023-04-14T10:22:17.826Z,96703.69
2023-04-14T10:24:19.119Z,96698.66
2023-04-14T10:26:20.757Z,96735.22
2023-04-14T10:28:22.399Z,96696.88
2023-04-14T10:30:23.700Z,96695.16
2023-04-14T10:32:28.116Z,96690.09
2023-04-14T10:34:29.453Z,96686.78
2023-04-14T10:36:31.951Z,96694.44
2023-04-14T10:38:33.594Z,96697.75
2023-04-14T10:40:34.915Z,96691.78
2023-04-14T10:42:37.341Z,96693.38
2023-04-14T10:44:39.330Z,96686.47
2023-04-14T10:46:40.674Z,96688.13
2023-04-14T10:48:42.608Z,96684.63
2023-04-14T10:50:43.904Z,96689.72
2023-04-14T10:52:45.729Z,96693.03
2023-04-14T10:54:53.527Z,96687.94
2023-04-14T10:56:55.046Z,96682.91
2023-04-14T10:58:56.457Z,96681.25
2023-04-14T11:00:57.801Z,96685.47
2023-04-14T11:02:59.328Z,96679.41
2023-04-14T11:05:02.337Z,96686.13
2023-04-14T11:07:03.714Z,96669.91
2023-04-14T11:09:05.029Z,96669.75
2023-04-14T11:11:06.431Z,96673.13
2023-04-14T11:13:08.471Z,96667.13
2023-04-14T11:15:09.780Z,96666.31
2023-04-14T11:17:11.611Z,96659.53
2023-04-14T11:19:13.267Z,96653.63
2023-04-14T11:21:15.082Z,96646.94
2023-04-14T11:23:16.639Z,96645.31
2023-04-14T11:25:18.646Z,96650.41
2023-04-14T11:27:20.671Z,96641.03
2023-04-14T11:29:22.007Z,96646.09
2023-04-14T11:31:23.443Z,96643.53
2023-04-14T11:33:25.224Z,96639.19
2023-04-14T11:35:29.392Z,96637.53
2023-04-14T11:37:30.754Z,96638.34
2023-04-14T11:39:32.304Z,96632.38
2023-04-14T11:41:33.828Z,96635.75
2023-04-14T11:43:35.689Z,96636.63
2023-04-14T11:45:37.557Z,96646.84
2023-04-14T11:47:39.032Z,96644.41
2023-04-14T11:49:40.670Z,96463.16
2023-04-14T11:51:42.069Z,96645.59
2023-04-14T11:53:43.426Z,96643.22
2023-04-14T11:55:45.064Z,96645.13
2023-04-14T11:57:47.215Z,96646.16
2023-04-14T11:59:48.599Z,96641.25
2023-04-14T12:01:54.380Z,96644.00
2023-04-14T12:03:56.169Z,96633.16
2023-04-14T12:05:57.566Z,96640.88
2023-04-14T12:07:58.885Z,96627.34
2023-04-14T12:10:00.898Z,96630.81
2023-04-14T12:12:02.747Z,96633.34
2023-04-14T12:14:04.464Z,96635.00
2023-04-14T12:16:06.035Z,96629.78
2023-04-14T12:18:07.397Z,96633.03
2023-04-14T12:20:09.438Z,96628.66
2023-04-14T12:22:10.859Z,96629.28
2023-04-14T12:24:12.204Z,96622.31
2023-04-14T12:26:13.578Z,96625.50
2023-04-14T12:28:15.323Z,96629.50
2023-04-14T12:30:19.606Z,96625.09
2023-04-14T12:32:22.596Z,96627.44
2023-04-14T12:34:24.174Z,96612.63
2023-04-14T12:37:48.129Z,96617.47
2023-04-14T12:38:46.774Z,96617.34
2023-04-14T12:40:48.461Z,96615.53
2023-04-14T12:42:49.959Z,96609.41
2023-04-14T12:44:51.326Z,96616.94
2023-04-14T12:46:52.931Z,96613.56
2023-04-14T12:48:54.371Z,96609.28
2023-04-14T12:50:58.650Z,96613.47
2023-04-14T12:53:01.365Z,96607.63
2023-04-14T12:55:03.240Z,96607.56
2023-04-14T12:57:05.449Z,96611.84
2023-04-14T12:59:06.841Z,96608.38
2023-04-14T13:01:08.296Z,96605.94
2023-04-14T13:03:09.922Z,96604.34
2023-04-14T13:05:12.150Z,96604.34
2023-04-14T13:07:13.508Z,96604.53
2023-04-14T13:09:14.845Z,96606.28
2023-04-14T13:11:16.191Z,96605.53
2023-04-14T13:13:17.556Z,96620.16
2023-04-14T13:15:31.077Z,96605.75
2023-04-14T13:17:40.426Z,96599.13
2023-04-14T13:19:42.032Z,96600.91
2023-04-14T13:21:43.391Z,96601.88
2023-04-14T13:23:44.823Z,96599.44
2023-04-14T13:25:46.193Z,96594.44
2023-04-14T13:27:47.515Z,96601.28
2023-04-14T13:29:48.803Z,96593.78
2023-04-14T13:31:50.378Z,96593.00
2023-04-14T13:33:51.674Z,96595.66
2023-04-14T13:35:53.550Z,96591.50
2023-04-14T13:37:54.887Z,96597.56
2023-04-14T13:39:56.396Z,96594.25
2023-04-14T13:41:57.713Z,96595.06
2023-04-14T13:44:02.352Z,96599.34
2023-04-14T13:46:03.750Z,96601.09
2023-04-14T13:48:07.972Z,96594.25
2023-04-14T13:50:12.073Z,96603.69
2023-04-14T13:52:13.643Z,96588.34
2023-04-14T13:54:14.942Z,96595.81
2023-04-14T13:56:16.264Z,96599.09
2023-04-14T13:58:17.626Z,96598.88
2023-04-14T14:00:18.955Z,96605.66
2023-04-14T14:02:20.344Z,96602.09
2023-04-14T14:04:21.925Z,96598.50
2023-04-14T14:06:23.315Z,96601.78
2023-04-14T14:08:24.627Z,96599.13
2023-04-14T14:10:26.159Z,96607.53
2023-04-14T14:12:27.489Z,96596.38
2023-04-14T14:14:28.885Z,96603.06
2023-04-14T14:16:36.801Z,96602.91
2023-04-14T14:18:38.654Z,96606.28
2023-04-14T14:20:39.991Z,96603.69
2023-04-14T14:22:41.658Z,96602.72
2023-04-14T14:24:43.041Z,96597.53
2023-04-14T14:26:44.591Z,96600.16
2023-04-14T14:28:47.579Z,96592.44
2023-04-14T14:30:48.919Z,96594.09
2023-04-14T14:32:50.281Z,96597.63
2023-04-14T14:34:51.612Z,96590.16
2023-04-14T14:36:59.017Z,96595.53
2023-04-14T14:39:01.056Z,96599.19
2023-04-14T14:41:02.625Z,96606.22
2023-04-14T14:43:04.062Z,96596.28
2023-04-14T14:45:05.355Z,96610.13
2023-04-14T14:47:08.163Z,96595.06
2023-04-14T14:49:10.037Z,96598.66
2023-04-14T14:51:11.487Z,96596.13
2023-04-14T14:53:12.787Z,96595.31
2023-04-14T14:55:17.091Z,96595.31
2023-04-14T14:57:20.984Z,96592.84
2023-04-14T14:59:22.279Z,96593.69
2023-04-14T15:01:24.575Z,96590.22
2023-04-14T15:03:26.047Z,96596.03
2023-04-14T15:05:27.671Z,96601.84
2023-04-14T15:07:28.972Z,96601.00
2023-04-14T15:09:30.275Z,96602.59
2023-04-14T15:11:31.581Z,96601.59
2023-04-14T15:13:33.431Z,96598.06
2023-04-14T15:15:35.048Z,96603.03
2023-04-14T15:17:36.436Z,96608.00
2023-04-14T15:19:37.782Z,96605.31
2023-04-14T15:21:39.074Z,96600.06
2023-04-14T15:23:43.242Z,96602.56
2023-04-14T15:25:44.546Z,96599.81
2023-04-14T15:27:45.837Z,96601.47
2023-04-14T15:29:47.419Z,96603.06
2023-04-14T15:31:48.771Z,96602.16
2023-04-14T15:33:50.504Z,96604.66
2023-04-14T15:35:51.841Z,96593.53
2023-04-14T15:37:53.177Z,96589.25
2023-04-14T15:39:54.553Z,96598.59
2023-04-14T15:41:55.844Z,96603.69
2023-04-14T15:43:57.378Z,96596.91
2023-04-14T15:46:01.457Z,96601.19
2023-04-14T15:48:02.844Z,96604.66
2023-04-14T15:50:09.260Z,96611.13
2023-04-14T15:52:11.685Z,96623.97
2023-04-14T15:54:13.432Z,96611.84
2023-04-14T15:56:14.755Z,96621.00
2023-04-14T15:58:16.226Z,96628.72
2023-04-14T16:00:17.591Z,96617.22
2023-04-14T16:02:19.013Z,96606.41
2023-04-14T16:04:20.600Z,96610.66
2023-04-14T16:06:21.990Z,96608.84
2023-04-14T16:08:23.286Z,96608.38
2023-04-14T16:10:24.618Z,96614.63
2023-04-14T16:14:27.319Z,96612.22
2023-04-14T16:16:28.810Z,96607.03
2023-04-14T16:18:30.133Z,96607.31
2023-04-14T16:20:31.804Z,96606.72
2023-04-14T16:22:34.142Z,96605.69
2023-04-14T16:24:35.430Z,96603.72
2023-04-14T16:26:37.656Z,96602.56
2023-04-14T16:28:39.032Z,96600.88
2023-04-14T16:30:40.331Z,96598.88
2023-04-14T16:32:42.029Z,96601.75
2023-04-14T16:34:43.495Z,96607.91
2023-04-14T16:36:46.463Z,96597.00
2023-04-14T16:38:50.923Z,96615.69
2023-04-14T16:40:52.238Z,96614.75
2023-04-14T16:42:53.738Z,96611.69
2023-04-14T16:44:55.140Z,96615.38
2023-04-14T16:46:56.587Z,96608.69
2023-04-14T16:49:01.183Z,96597.28
2023-04-14T16:51:05.780Z,96595.75
2023-04-14T16:53:07.361Z,96600.09
2023-04-14T16:55:08.699Z,96594.19
2023-04-14T16:57:10.451Z,96591.53
2023-04-14T16:59:11.774Z,96592.38
2023-04-14T17:01:13.279Z,96587.31
2023-04-14T17:03:14.875Z,96594.50
2023-04-14T17:05:16.593Z,96589.53
2023-04-14T17:07:18.126Z,96597.78
2023-04-14T17:09:19.413Z,96598.78
2023-04-14T17:11:24.204Z,96595.47
2023-04-14T17:13:25.598Z,96599.19
2023-04-14T17:15:27.731Z,96598.44
2023-04-14T17:17:29.073Z,96603.50
2023-04-14T17:19:30.378Z,96598.66
2023-04-14T17:21:31.696Z,96601.63
2023-04-14T17:23:33.007Z,96600.72
2023-04-14T17:25:34.348Z,96607.03
2023-04-14T17:27:35.640Z,96615.16
2023-04-14T17:29:43.027Z,96607.06
2023-04-14T17:31:44.626Z,96609.56
2023-04-14T17:33:46.273Z,96609.22
2023-04-14T17:35:47.599Z,96608.13
2023-04-14T17:37:48.925Z,96615.25
2023-04-14T17:39:51.441Z,96610.25
2023-04-14T17:41:52.746Z,96618.16
2023-04-14T17:43:54.071Z,96615.16
2023-04-14T17:45:58.695Z,96622.28
2023-04-14T17:48:00.172Z,96625.97
2023-04-14T17:50:02.205Z,96617.72
2023-04-14T17:52:03.521Z,96620.34
2023-04-14T17:54:05.573Z,96616.13
2023-04-14T17:56:06.935Z,96616.66
2023-04-14T17:58:08.300Z,96611.38
2023-04-14T18:00:15.376Z,96604.03
2023-04-14T18:02:19.596Z,96598.78
2023-04-14T18:04:24.019Z,96598.44
2023-04-14T18:06:25.388Z,96599.28
2023-04-14T18:08:26.681Z,96596.66
2023-04-14T18:10:28.018Z,96593.97
2023-04-14T18:12:30.854Z,96602.91
2023-04-14T18:14:32.743Z,96606.41
2023-04-14T18:16:36.729Z,96610.28
2023-04-14T18:18:41.048Z,96614.72
2023-04-14T18:20:42.439Z,96610.28
2023-04-14T18:22:43.773Z,96612.38
2023-04-14T18:26:49.313Z,96609.91
2023-04-14T18:28:53.612Z,96607.00
2023-04-14T18:30:59.018Z,96609.28
2023-04-14T18:33:00.980Z,96607.56
2023-04-14T18:35:02.348Z,96616.09
2023-04-14T18:37:04.003Z,96610.88
2023-04-14T18:39:07.202Z,96609.00
2023-04-14T18:41:08.819Z,96611.56
2023-04-14T18:43:10.111Z,96601.63
2023-04-14T18:45:11.502Z,96609.97
2023-04-14T18:47:12.899Z,96603.88
2023-04-14T18:49:14.300Z,96612.16
2023-04-14T18:51:16.080Z,96601.94
2023-04-14T18:53:17.425Z,96600.72
2023-04-14T18:55:19.539Z,96595.06
2023-04-14T18:57:22.295Z,96590.56
2023-04-14T18:59:23.703Z,96599.22
2023-04-14T19:01:25.112Z,96596.50
2023-04-14T19:03:29.952Z,96595.59
2023-04-14T19:05:32.066Z,96597.13
2023-04-14T19:07:33.382Z,96592.59
2023-04-14T19:09:36.161Z,96592.59
2023-04-14T19:11:37.523Z,96593.19
2023-04-14T19:13:38.874Z,96588.91
2023-04-14T19:15:40.256Z,96581.13
2023-04-14T19:17:41.917Z,96569.94
2023-04-14T19:19:43.847Z,96574.06
2023-04-14T19:21:45.144Z,96579.94
2023-04-14T19:23:46.677Z,96583.16
2023-04-14T19:25:50.798Z,96581.22
2023-04-14T19:27:56.979Z,96578.16
2023-04-14T19:29:58.283Z,96587.19
2023-04-14T19:31:59.705Z,96578.91
2023-04-14T19:34:01.109Z,96580.22
2023-04-14T19:36:02.587Z,96586.78
2023-04-14T19:38:04.705Z,96589.03
2023-04-14T19:40:10.955Z,96594.97
2023-04-14T19:42:12.520Z,96598.34
2023-04-14T19:44:14.668Z,96606.84
2023-04-14T19:46:16.719Z,96598.31
2023-04-14T19:48:23.562Z,96597.38
2023-04-14T19:50:25.763Z,96598.34
2023-04-14T19:52:27.119Z,96597.53
2023-04-14T19:54:28.772Z,96592.41
2023-04-14T19:56:30.140Z,96594.06
2023-04-14T19:58:32.692Z,96591.47
2023-04-14T20:00:43.481Z,96587.63
2023-04-14T20:02:45.150Z,96581.47
2023-04-14T20:04:46.825Z,96575.44
2023-04-14T20:06:50.943Z,96576.00
2023-04-14T20:08:52.244Z,96570.53
2023-04-14T20:10:54.168Z,96563.06
2023-04-14T20:12:55.561Z,96561.84
2023-04-14T20:14:57.301Z,96552.72
2023-04-14T20:16:59.438Z,96556.03
2023-04-14T20:19:02.525Z,96560.22
2023-04-14T20:21:04.733Z,96555.09
2023-04-14T20:23:07.064Z,96560.06
2023-04-14T20:25:08.377Z,96554.78
2023-04-14T20:27:09.715Z,96553.06
2023-04-14T20:29:12.277Z,96553.91
2023-04-14T20:31:16.529Z,96550.41
2023-04-14T20:33:21.451Z,96551.19
2023-04-14T20:35:22.867Z,96543.28
2023-04-14T20:37:24.159Z,96544.84
2023-04-14T20:39:25.507Z,96540.63
2023-04-14T20:41:27.286Z,96545.22
2023-04-14T20:43:33.892Z,96533.69
2023-04-14T20:45:35.280Z,96540.72
2023-04-14T20:47:37.137Z,96536.19
2023-04-14T20:49:41.574Z,96531.00
2023-04-14T20:51:42.898Z,96522.38
2023-04-14T20:53:44.400Z,96529.22
2023-04-14T20:55:46.041Z,96529.69
2023-04-14T20:57:47.977Z,96523.06
2023-04-14T20:59:49.677Z,96526.78
2023-04-14T21:01:53.917Z,96519.97
2023-04-14T21:03:56.230Z,96518.66
2023-04-14T21:05:57.763Z,96524.69
2023-04-14T21:07:59.099Z,96518.34
2023-04-14T21:10:00.444Z,96522.28
2023-04-14T21:12:14.349Z,96513.78
2023-04-14T21:15:30.734Z,96524.59
2023-04-14T21:16:41.843Z,96400.88
2023-04-14T21:18:43.242Z,96516.69
2023-04-14T21:20:44.624Z,96520.41
2023-04-14T21:22:45.960Z,96526.25
2023-04-14T21:24:48.581Z,96523.81
2023-04-14T21:26:49.928Z,96518.75
2023-04-14T21:28:51.261Z,96524.53
2023-04-14T21:30:55.855Z,96520.09
2023-04-14T21:32:57.260Z,96521.53
2023-04-14T21:34:59.034Z,96514.53
2023-04-14T21:37:00.336Z,96511.41
2023-04-14T21:39:02.224Z,96514.03
2023-04-14T21:41:03.984Z,96520.09
2023-04-14T21:43:05.285Z,96519.09
2023-04-14T21:45:07.757Z,96517.25
2023-04-14T21:47:09.138Z,96514.03
2023-04-14T21:49:11.371Z,96506.19
2023-04-14T21:51:13.283Z,96502.16
2023-04-14T21:53:14.596Z,96503.88
2023-04-14T21:55:16.284Z,96496.53
2023-04-14T21:57:48.372Z,96494.97
2023-04-14T21:59:41.882Z,96494.22
2023-04-14T22:01:43.327Z,96497.66
2023-04-14T22:03:44.778Z,96498.34
2023-04-14T22:05:46.249Z,96497.66
2023-04-14T22:07:47.551Z,96496.94
2023-04-14T22:09:48.875Z,96498.44
2023-04-14T22:11:50.278Z,96505.03
2023-04-14T22:13:51.629Z,96497.63
2023-04-14T22:15:52.929Z,96500.75
2023-04-14T22:17:54.343Z,96487.31
2023-04-14T22:19:55.697Z,96492.50
2023-04-14T22:21:57.020Z,96483.22
2023-04-14T22:23:58.609Z,96488.84
2023-04-14T22:25:59.935Z,96484.38
2023-04-14T22:28:01.270Z,96489.09
2023-04-14T22:30:02.799Z,96490.69
2023-04-14T22:32:04.231Z,96497.22
2023-04-14T22:34:05.612Z,96494.28
2023-04-14T22:36:07.585Z,96495.72
2023-04-14T22:38:08.890Z,96492.88
2023-04-14T22:40:10.189Z,96496.03
2023-04-14T22:42:11.484Z,96500.06
2023-04-14T22:44:12.950Z,96489.69
2023-04-14T22:46:15.190Z,96498.84
2023-04-14T22:48:16.556Z,96508.16
2023-04-14T22:50:17.864Z,96501.25
2023-04-14T22:52:19.484Z,96506.34
2023-04-14T22:54:20.795Z,96497.84
2023-04-14T22:56:22.087Z,96503.13
2023-04-14T22:58:24.163Z,96503.25
2023-04-14T23:00:25.505Z,96507.59
2023-04-14T23:02:27.722Z,96504.44
2023-04-14T23:04:29.213Z,96507.09
2023-04-14T23:06:30.576Z,96516.63
2023-04-14T23:08:31.922Z,96501.44
2023-04-14T23:10:33.269Z,96500.75
2023-04-14T23:12:34.608Z,96503.44
2023-04-14T23:14:35.947Z,96508.66
2023-04-14T23:16:37.249Z,96500.28
2023-04-14T23:18:39.868Z,96500.38
2023-04-14T23:20:41.258Z,96497.13
2023-04-14T23:22:42.932Z,96502.34
2023-04-14T23:24:44.650Z,96502.47
2023-04-14T23:26:45.939Z,96491.56
2023-04-14T23:28:47.270Z,96495.84
2023-04-14T23:30:48.593Z,96490.88
2023-04-14T23:32:50.124Z,96491.84
2023-04-14T23:34:51.500Z,96495.25
2023-04-14T23:36:52.765Z,96488.56
2023-04-14T23:38:54.954Z,96495.38
2023-04-14T23:40:59.034Z,96493.44
2023-04-14T23:43:00.516Z,96488.50
2023-04-14T23:45:02.212Z,96491.19
2023-04-14T23:47:05.287Z,96487.66
2023-04-14T23:49:23.826Z,96480.00
2023-04-14T23:51:27.100Z,96477.44
2023-04-14T23:53:28.554Z,96475.78
2023-04-14T23:55:29.932Z,96470.63
2023-04-14T23:57:31.273Z,96475.78